• Join FlightAware (Why Join?)
  • Login
  • US Flag 
04:38AM EST


 

Airport Tracker/Info


-or-


 

Live Flight TrackerFlight Track Log ✈ EJA396 ✈ 12-Dec-2013 ✈ KSFO - KMRY

Flight Track Log - Related Links

Times and Time Zones

All times are in EST time to prevent confusion due to time zone crossing. See the EJA396 flight status page for this flight to view local times or setup timezone preferences in your user account.

Time Position Orientation Groundspeed Altitude Reporting Facility
EST Latitude Longitude Course Direction KTS MPH feet Rate Location/Type
12:11PM 37.6333 -122.3667 360° North 168 193 700  Level Northern Cal TRACON
12:12PM 37.7000 -122.3667 360° North 257 296 4,600 3,780 Climbing Northern Cal TRACON
12:13PM 37.7256 -122.4019 312° West 270 311 6,700 2,700 Climbing Oakland Center
12:14PM 37.6767 -122.4517 219° Southwest 266 306 9,000 1,980 Climbing Oakland Center
12:15PM 37.5978 -122.4517 180° South 282 325 10,800 960 Climbing Oakland Center
12:16PM 37.5056 -122.4503 179° South 329 379 11,000  Climbing Oakland Center
12:17PM 37.4108 -122.4486 179° South 339 390 10,900  Descending Oakland Center
12:18PM 37.3144 -122.4475 179° South 345 397 11,000  Climbing Oakland Center
12:19PM 37.2194 -122.4467 180° South 343 395 11,000 -300 Level Oakland Center
12:20PM 37.1267 -122.4442 179° South 334 384 10,500 -900 Descending Oakland Center
12:21PM 37.0597 -122.3914 148° Southeast 284 327 9,200 -1,260 Descending Oakland Center
12:22PM 36.9878 -122.3161 140° Southeast 278 320 8,000 -1,320 Descending Oakland Center
12:23PM 36.9319 -122.2594 141° Southeast 262 302 6,500 -1,620 Descending Oakland Center
12:24PM 36.8733 -122.2014 142° Southeast 266 306 4,700 -1,620 Descending Oakland Center
12:25PM 36.8172 -122.1453 141° Southeast 264 304 3,200 -900 Descending Oakland Center
12:26PM 36.7636 -122.0900 140° Southeast 257 296 2,900 -180 Descending Oakland Center
12:27PM 36.7106 -122.0364 141° Southeast 252 290 2,900 -480 Level Oakland Center
12:29PM 36.6333 -121.9667 144° Southeast 186 214 1,700 -660 Descending Northern Cal TRACON
12:30PM 36.6167 -121.9167 113° Southeast 167 192 1,300 -600 Descending Northern Cal TRACON
12:31PM 36.6000 -121.8833 122° Southeast 126 145 600 -720 Descending Northern Cal TRACON